sensor_id;sensor_type;location;lat;lon;timestamp;P1;durP1;ratioP1;P2;durP2;ratioP2
21239;SDS011;10778;48.962;9.018;2024-01-15T00:02:22;42.78;;;15.63;;
21239;SDS011;10778;48.962;9.018;2024-01-15T00:04:48;41.38;;;14.98;;
21239;SDS011;10778;48.962;9.018;2024-01-15T00:07:14;39.80;;;14.32;;
21239;SDS011;10778;48.962;9.018;2024-01-15T00:09:40;38.38;;;14.70;;
21239;SDS011;10778;48.962;9.018;2024-01-15T00:12:06;42.33;;;15.13;;
21239;SDS011;10778;48.962;9.018;2024-01-15T00:14:32;40.60;;;15.32;;
21239;SDS011;10778;48.962;9.018;2024-01-15T00:16:58;40.00;;;15.25;;
21239;SDS011;10778;48.962;9.018;2024-01-15T00:19:24;42.67;;;15.52;;
21239;SDS011;10778;48.962;9.018;2024-01-15T00:21:50;39.78;;;15.70;;
21239;SDS011;10778;48.962;9.018;2024-01-15T00:24:16;44.38;;;16.40;;
21239;SDS011;10778;48.962;9.018;2024-01-15T00:26:42;43.85;;;16.27;;
21239;SDS011;10778;48.962;9.018;2024-01-15T00:29:08;44.53;;;16.05;;
21239;SDS011;10778;48.962;9.018;2024-01-15T00:31:35;41.08;;;15.65;;
21239;SDS011;10778;48.962;9.018;2024-01-15T00:34:01;43.75;;;15.50;;
21239;SDS011;10778;48.962;9.018;2024-01-15T00:36:27;41.92;;;15.93;;
21239;SDS011;10778;48.962;9.018;2024-01-15T00:38:54;40.28;;;15.50;;
21239;SDS011;10778;48.962;9.018;2024-01-15T00:41:20;46.28;;;16.55;;
21239;SDS011;10778;48.962;9.018;2024-01-15T00:43:46;42.35;;;15.77;;
21239;SDS011;10778;48.962;9.018;2024-01-15T00:46:14;48.15;;;16.50;;
21239;SDS011;10778;48.962;9.018;2024-01-15T00:48:41;43.15;;;15.93;;
21239;SDS011;10778;48.962;9.018;2024-01-15T00:51:07;47.22;;;16.77;;
21239;SDS011;10778;48.962;9.018;2024-01-15T00:53:33;42.78;;;15.77;;
21239;SDS011;10778;48.962;9.018;2024-01-15T00:55:59;42.17;;;16.20;;
21239;SDS011;10778;48.962;9.018;2024-01-15T00:58:26;39.58;;;15.77;;
21239;SDS011;10778;48.962;9.018;2024-01-15T01:00:52;47.45;;;17.05;;
21239;SDS011;10778;48.962;9.018;2024-01-15T01:03:18;45.65;;;17.13;;
21239;SDS011;10778;48.962;9.018;2024-01-15T01:05:44;47.20;;;17.33;;
21239;SDS011;10778;48.962;9.018;2024-01-15T01:08:10;44.03;;;17.25;;
21239;SDS011;10778;48.962;9.018;2024-01-15T01:10:37;49.33;;;17.63;;
21239;SDS011;10778;48.962;9.018;2024-01-15T01:13:03;48.85;;;18.75;;
21239;SDS011;10778;48.962;9.018;2024-01-15T01:15:29;42.70;;;17.13;;
21239;SDS011;10778;48.962;9.018;2024-01-15T01:17:55;51.65;;;17.80;;
21239;SDS011;10778;48.962;9.018;2024-01-15T01:20:21;45.22;;;17.55;;
21239;SDS011;10778;48.962;9.018;2024-01-15T01:22:47;50.00;;;17.60;;
21239;SDS011;10778;48.962;9.018;2024-01-15T01:25:13;46.00;;;16.92;;
21239;SDS011;10778;48.962;9.018;2024-01-15T01:27:40;46.00;;;17.50;;
21239;SDS011;10778;48.962;9.018;2024-01-15T01:30:06;42.45;;;16.25;;
21239;SDS011;10778;48.962;9.018;2024-01-15T01:32:32;45.90;;;17.45;;
21239;SDS011;10778;48.962;9.018;2024-01-15T01:34:58;39.47;;;16.15;;
21239;SDS011;10778;48.962;9.018;2024-01-15T01:37:24;43.65;;;16.48;;
21239;SDS011;10778;48.962;9.018;2024-01-15T01:39:50;39.70;;;15.43;;
21239;SDS011;10778;48.962;9.018;2024-01-15T01:42:16;39.35;;;16.13;;
21239;SDS011;10778;48.962;9.018;2024-01-15T01:44:42;40.25;;;16.20;;
21239;SDS011;10778;48.962;9.018;2024-01-15T01:47:08;43.83;;;15.68;;
21239;SDS011;10778;48.962;9.018;2024-01-15T01:49:34;42.13;;;15.60;;
21239;SDS011;10778;48.962;9.018;2024-01-15T01:52:04;40.95;;;15.48;;
21239;SDS011;10778;48.962;9.018;2024-01-15T01:54:32;40.80;;;15.55;;
21239;SDS011;10778;48.962;9.018;2024-01-15T01:56:59;42.38;;;15.38;;
21239;SDS011;10778;48.962;9.018;2024-01-15T01:59:28;42.30;;;15.85;;
21239;SDS011;10778;48.962;9.018;2024-01-15T02:01:54;40.60;;;15.80;;
21239;SDS011;10778;48.962;9.018;2024-01-15T02:04:22;41.05;;;15.57;;
21239;SDS011;10778;48.962;9.018;2024-01-15T02:06:50;42.03;;;15.50;;
21239;SDS011;10778;48.962;9.018;2024-01-15T02:09:17;40.05;;;15.10;;
21239;SDS011;10778;48.962;9.018;2024-01-15T02:11:45;40.55;;;15.38;;
21239;SDS011;10778;48.962;9.018;2024-01-15T02:14:12;45.65;;;15.95;;
21239;SDS011;10778;48.962;9.018;2024-01-15T02:16:38;38.60;;;14.68;;
21239;SDS011;10778;48.962;9.018;2024-01-15T02:19:04;38.03;;;15.18;;
21239;SDS011;10778;48.962;9.018;2024-01-15T02:21:33;40.47;;;14.70;;
21239;SDS011;10778;48.962;9.018;2024-01-15T02:23:59;38.40;;;15.65;;
21239;SDS011;10778;48.962;9.018;2024-01-15T02:26:25;37.60;;;15.18;;
21239;SDS011;10778;48.962;9.018;2024-01-15T02:28:52;40.38;;;15.90;;
21239;SDS011;10778;48.962;9.018;2024-01-15T02:31:18;37.75;;;14.23;;
21239;SDS011;10778;48.962;9.018;2024-01-15T02:33:44;36.63;;;14.63;;
21239;SDS011;10778;48.962;9.018;2024-01-15T02:36:11;40.17;;;15.10;;
21239;SDS011;10778;48.962;9.018;2024-01-15T02:38:38;39.58;;;14.73;;
21239;SDS011;10778;48.962;9.018;2024-01-15T02:41:04;36.35;;;14.20;;
21239;SDS011;10778;48.962;9.018;2024-01-15T02:43:30;35.90;;;14.50;;
21239;SDS011;10778;48.962;9.018;2024-01-15T02:45:56;35.50;;;14.07;;
21239;SDS011;10778;48.962;9.018;2024-01-15T02:48:22;38.58;;;15.93;;
21239;SDS011;10778;48.962;9.018;2024-01-15T02:50:48;36.55;;;14.90;;
21239;SDS011;10778;48.962;9.018;2024-01-15T02:53:14;37.85;;;14.82;;
21239;SDS011;10778;48.962;9.018;2024-01-15T02:55:40;37.03;;;13.75;;
21239;SDS011;10778;48.962;9.018;2024-01-15T02:58:06;37.28;;;14.23;;
21239;SDS011;10778;48.962;9.018;2024-01-15T03:00:33;38.63;;;14.65;;
21239;SDS011;10778;48.962;9.018;2024-01-15T03:02:59;37.38;;;14.57;;
21239;SDS011;10778;48.962;9.018;2024-01-15T03:05:25;36.33;;;14.45;;
21239;SDS011;10778;48.962;9.018;2024-01-15T03:07:51;35.88;;;14.93;;
21239;SDS011;10778;48.962;9.018;2024-01-15T03:10:17;35.10;;;14.02;;
21239;SDS011;10778;48.962;9.018;2024-01-15T03:12:42;34.70;;;14.13;;
21239;SDS011;10778;48.962;9.018;2024-01-15T03:15:09;35.42;;;14.88;;
21239;SDS011;10778;48.962;9.018;2024-01-15T03:17:35;37.78;;;13.80;;
21239;SDS011;10778;48.962;9.018;2024-01-15T03:20:01;34.53;;;14.13;;
21239;SDS011;10778;48.962;9.018;2024-01-15T03:22:28;34.90;;;13.82;;
21239;SDS011;10778;48.962;9.018;2024-01-15T03:24:54;35.03;;;13.75;;
21239;SDS011;10778;48.962;9.018;2024-01-15T03:27:20;34.17;;;14.25;;
21239;SDS011;10778;48.962;9.018;2024-01-15T03:29:46;32.00;;;12.68;;
21239;SDS011;10778;48.962;9.018;2024-01-15T03:32:12;29.40;;;13.48;;
21239;SDS011;10778;48.962;9.018;2024-01-15T03:34:38;33.58;;;13.25;;
21239;SDS011;10778;48.962;9.018;2024-01-15T03:37:04;30.40;;;12.98;;
21239;SDS011;10778;48.962;9.018;2024-01-15T03:39:30;31.17;;;13.68;;
21239;SDS011;10778;48.962;9.018;2024-01-15T03:41:56;30.30;;;13.50;;
21239;SDS011;10778;48.962;9.018;2024-01-15T03:44:22;33.28;;;13.80;;
21239;SDS011;10778;48.962;9.018;2024-01-15T03:46:48;30.80;;;13.68;;
21239;SDS011;10778;48.962;9.018;2024-01-15T03:49:14;31.30;;;13.52;;
21239;SDS011;10778;48.962;9.018;2024-01-15T03:51:40;34.85;;;13.57;;
21239;SDS011;10778;48.962;9.018;2024-01-15T03:54:06;29.95;;;13.55;;
21239;SDS011;10778;48.962;9.018;2024-01-15T03:56:32;28.60;;;13.60;;
21239;SDS011;10778;48.962;9.018;2024-01-15T03:58:58;28.58;;;13.05;;
21239;SDS011;10778;48.962;9.018;2024-01-15T04:01:24;32.83;;;13.32;;
21239;SDS011;10778;48.962;9.018;2024-01-15T04:03:50;29.08;;;12.80;;
21239;SDS011;10778;48.962;9.018;2024-01-15T04:06:16;28.85;;;13.23;;
21239;SDS011;10778;48.962;9.018;2024-01-15T04:08:42;29.95;;;13.05;;
21239;SDS011;10778;48.962;9.018;2024-01-15T04:11:08;26.45;;;12.48;;
21239;SDS011;10778;48.962;9.018;2024-01-15T04:13:34;27.85;;;12.73;;
21239;SDS011;10778;48.962;9.018;2024-01-15T04:16:00;29.90;;;13.18;;
21239;SDS011;10778;48.962;9.018;2024-01-15T04:18:26;30.48;;;12.80;;
21239;SDS011;10778;48.962;9.018;2024-01-15T04:20:52;26.10;;;12.38;;
21239;SDS011;10778;48.962;9.018;2024-01-15T04:23:18;27.73;;;12.63;;
21239;SDS011;10778;48.962;9.018;2024-01-15T04:25:44;27.98;;;11.93;;
21239;SDS011;10778;48.962;9.018;2024-01-15T04:28:11;24.70;;;12.32;;
21239;SDS011;10778;48.962;9.018;2024-01-15T04:30:38;27.23;;;12.20;;
21239;SDS011;10778;48.962;9.018;2024-01-15T04:33:04;25.33;;;12.20;;
21239;SDS011;10778;48.962;9.018;2024-01-15T04:35:30;30.23;;;12.73;;
21239;SDS011;10778;48.962;9.018;2024-01-15T04:37:56;28.98;;;12.48;;
21239;SDS011;10778;48.962;9.018;2024-01-15T04:40:22;25.83;;;12.38;;
21239;SDS011;10778;48.962;9.018;2024-01-15T04:42:48;26.00;;;12.65;;
21239;SDS011;10778;48.962;9.018;2024-01-15T04:45:14;28.02;;;12.00;;
21239;SDS011;10778;48.962;9.018;2024-01-15T04:47:40;28.15;;;12.23;;
21239;SDS011;10778;48.962;9.018;2024-01-15T04:50:08;30.27;;;12.52;;
21239;SDS011;10778;48.962;9.018;2024-01-15T04:52:34;30.85;;;12.90;;
21239;SDS011;10778;48.962;9.018;2024-01-15T04:54:59;30.27;;;12.57;;
21239;SDS011;10778;48.962;9.018;2024-01-15T04:57:25;30.75;;;13.65;;
21239;SDS011;10778;48.962;9.018;2024-01-15T04:59:51;28.70;;;12.40;;
21239;SDS011;10778;48.962;9.018;2024-01-15T05:02:17;28.90;;;12.82;;
21239;SDS011;10778;48.962;9.018;2024-01-15T05:04:43;30.38;;;12.43;;
21239;SDS011;10778;48.962;9.018;2024-01-15T05:07:10;26.27;;;12.25;;
21239;SDS011;10778;48.962;9.018;2024-01-15T05:09:36;30.17;;;12.70;;
21239;SDS011;10778;48.962;9.018;2024-01-15T05:12:02;32.28;;;12.73;;
21239;SDS011;10778;48.962;9.018;2024-01-15T05:14:28;26.75;;;11.88;;
21239;SDS011;10778;48.962;9.018;2024-01-15T05:16:54;27.85;;;12.38;;
21239;SDS011;10778;48.962;9.018;2024-01-15T05:19:20;24.95;;;11.15;;
21239;SDS011;10778;48.962;9.018;2024-01-15T05:21:45;28.27;;;12.32;;
21239;SDS011;10778;48.962;9.018;2024-01-15T05:24:11;29.08;;;12.60;;
21239;SDS011;10778;48.962;9.018;2024-01-15T05:26:37;25.65;;;11.75;;
21239;SDS011;10778;48.962;9.018;2024-01-15T05:29:03;25.27;;;11.75;;
21239;SDS011;10778;48.962;9.018;2024-01-15T05:31:29;24.92;;;11.60;;
21239;SDS011;10778;48.962;9.018;2024-01-15T05:33:55;25.67;;;11.52;;
21239;SDS011;10778;48.962;9.018;2024-01-15T05:36:21;23.65;;;10.90;;
21239;SDS011;10778;48.962;9.018;2024-01-15T05:38:47;24.35;;;10.25;;
21239;SDS011;10778;48.962;9.018;2024-01-15T05:41:14;21.98;;;10.20;;
21239;SDS011;10778;48.962;9.018;2024-01-15T05:43:40;20.98;;;10.40;;
21239;SDS011;10778;48.962;9.018;2024-01-15T05:46:06;20.27;;;10.00;;
21239;SDS011;10778;48.962;9.018;2024-01-15T05:48:32;20.25;;;9.80;;
21239;SDS011;10778;48.962;9.018;2024-01-15T05:50:58;19.95;;;9.93;;
21239;SDS011;10778;48.962;9.018;2024-01-15T05:53:24;21.48;;;9.80;;
21239;SDS011;10778;48.962;9.018;2024-01-15T05:55:50;21.63;;;9.77;;
21239;SDS011;10778;48.962;9.018;2024-01-15T05:58:16;20.10;;;9.30;;
21239;SDS011;10778;48.962;9.018;2024-01-15T06:00:42;20.10;;;9.18;;
21239;SDS011;10778;48.962;9.018;2024-01-15T06:03:08;19.90;;;9.65;;
21239;SDS011;10778;48.962;9.018;2024-01-15T06:05:34;23.25;;;9.95;;
21239;SDS011;10778;48.962;9.018;2024-01-15T06:08:00;18.70;;;9.32;;
21239;SDS011;10778;48.962;9.018;2024-01-15T06:10:26;17.42;;;9.23;;
21239;SDS011;10778;48.962;9.018;2024-01-15T06:12:52;18.77;;;9.10;;
21239;SDS011;10778;48.962;9.018;2024-01-15T06:15:18;18.30;;;8.63;;
21239;SDS011;10778;48.962;9.018;2024-01-15T06:17:44;18.58;;;9.35;;
21239;SDS011;10778;48.962;9.018;2024-01-15T06:20:10;18.02;;;9.00;;
21239;SDS011;10778;48.962;9.018;2024-01-15T06:22:37;18.73;;;9.20;;
21239;SDS011;10778;48.962;9.018;2024-01-15T06:25:06;21.85;;;10.20;;
21239;SDS011;10778;48.962;9.018;2024-01-15T06:27:33;21.23;;;10.00;;
21239;SDS011;10778;48.962;9.018;2024-01-15T06:29:59;18.85;;;9.05;;
21239;SDS011;10778;48.962;9.018;2024-01-15T06:32:25;21.35;;;10.20;;
21239;SDS011;10778;48.962;9.018;2024-01-15T06:34:51;19.48;;;10.07;;
21239;SDS011;10778;48.962;9.018;2024-01-15T06:37:17;22.73;;;10.30;;
21239;SDS011;10778;48.962;9.018;2024-01-15T06:39:44;18.02;;;9.00;;
21239;SDS011;10778;48.962;9.018;2024-01-15T06:42:10;21.88;;;9.75;;
21239;SDS011;10778;48.962;9.018;2024-01-15T06:44:36;18.65;;;9.23;;
21239;SDS011;10778;48.962;9.018;2024-01-15T06:47:02;17.88;;;9.27;;
21239;SDS011;10778;48.962;9.018;2024-01-15T06:49:28;19.98;;;10.30;;
21239;SDS011;10778;48.962;9.018;2024-01-15T06:51:55;22.95;;;11.38;;
21239;SDS011;10778;48.962;9.018;2024-01-15T06:54:21;23.55;;;11.18;;
21239;SDS011;10778;48.962;9.018;2024-01-15T06:56:47;20.88;;;10.70;;
21239;SDS011;10778;48.962;9.018;2024-01-15T06:59:13;19.45;;;9.82;;
21239;SDS011;10778;48.962;9.018;2024-01-15T07:01:39;20.17;;;9.98;;
21239;SDS011;10778;48.962;9.018;2024-01-15T07:04:06;17.20;;;8.90;;
21239;SDS011;10778;48.962;9.018;2024-01-15T07:06:32;16.13;;;8.90;;
21239;SDS011;10778;48.962;9.018;2024-01-15T07:08:58;17.48;;;8.70;;
21239;SDS011;10778;48.962;9.018;2024-01-15T07:11:24;17.60;;;8.77;;
21239;SDS011;10778;48.962;9.018;2024-01-15T07:13:50;17.08;;;8.82;;
21239;SDS011;10778;48.962;9.018;2024-01-15T07:16:16;16.92;;;8.45;;
21239;SDS011;10778;48.962;9.018;2024-01-15T07:18:41;19.67;;;9.20;;
21239;SDS011;10778;48.962;9.018;2024-01-15T07:21:07;17.98;;;8.90;;
21239;SDS011;10778;48.962;9.018;2024-01-15T07:23:33;19.67;;;10.02;;
21239;SDS011;10778;48.962;9.018;2024-01-15T07:25:59;20.35;;;10.70;;
21239;SDS011;10778;48.962;9.018;2024-01-15T07:28:25;18.70;;;9.15;;
21239;SDS011;10778;48.962;9.018;2024-01-15T07:30:54;17.63;;;9.25;;
21239;SDS011;10778;48.962;9.018;2024-01-15T07:33:35;18.30;;;9.10;;
21239;SDS011;10778;48.962;9.018;2024-01-15T07:36:01;18.10;;;8.93;;
21239;SDS011;10778;48.962;9.018;2024-01-15T07:38:28;18.83;;;9.15;;
21239;SDS011;10778;48.962;9.018;2024-01-15T07:40:54;17.80;;;8.95;;
21239;SDS011;10778;48.962;9.018;2024-01-15T07:43:20;17.60;;;8.27;;
21239;SDS011;10778;48.962;9.018;2024-01-15T07:45:46;18.42;;;8.48;;
21239;SDS011;10778;48.962;9.018;2024-01-15T07:48:12;17.65;;;8.52;;
21239;SDS011;10778;48.962;9.018;2024-01-15T07:50:39;19.55;;;8.85;;
21239;SDS011;10778;48.962;9.018;2024-01-15T07:53:05;17.27;;;8.70;;
21239;SDS011;10778;48.962;9.018;2024-01-15T07:55:31;19.02;;;8.68;;
21239;SDS011;10778;48.962;9.018;2024-01-15T07:57:57;17.38;;;8.70;;
21239;SDS011;10778;48.962;9.018;2024-01-15T08:00:27;21.02;;;8.77;;
21239;SDS011;10778;48.962;9.018;2024-01-15T08:02:53;18.50;;;8.95;;
21239;SDS011;10778;48.962;9.018;2024-01-15T08:05:19;17.17;;;8.48;;
21239;SDS011;10778;48.962;9.018;2024-01-15T08:07:46;16.90;;;7.72;;
21239;SDS011;10778;48.962;9.018;2024-01-15T08:10:12;17.65;;;7.95;;
21239;SDS011;10778;48.962;9.018;2024-01-15T08:12:39;14.15;;;7.40;;
21239;SDS011;10778;48.962;9.018;2024-01-15T08:15:05;16.52;;;7.78;;
21239;SDS011;10778;48.962;9.018;2024-01-15T08:17:31;17.15;;;7.60;;
21239;SDS011;10778;48.962;9.018;2024-01-15T08:19:58;16.35;;;7.65;;
21239;SDS011;10778;48.962;9.018;2024-01-15T08:22:25;14.98;;;7.15;;
21239;SDS011;10778;48.962;9.018;2024-01-15T08:24:51;15.18;;;7.40;;
21239;SDS011;10778;48.962;9.018;2024-01-15T08:27:17;14.20;;;7.28;;
21239;SDS011;10778;48.962;9.018;2024-01-15T08:29:44;13.77;;;7.05;;
21239;SDS011;10778;48.962;9.018;2024-01-15T08:32:10;13.35;;;7.03;;
21239;SDS011;10778;48.962;9.018;2024-01-15T08:34:39;21.65;;;9.52;;
21239;SDS011;10778;48.962;9.018;2024-01-15T08:37:05;18.98;;;9.10;;
21239;SDS011;10778;48.962;9.018;2024-01-15T08:39:31;17.65;;;7.47;;
21239;SDS011;10778;48.962;9.018;2024-01-15T08:41:57;15.20;;;7.28;;
21239;SDS011;10778;48.962;9.018;2024-01-15T08:44:23;15.10;;;7.18;;
21239;SDS011;10778;48.962;9.018;2024-01-15T08:46:49;15.35;;;7.53;;
21239;SDS011;10778;48.962;9.018;2024-01-15T08:49:15;15.93;;;8.00;;
21239;SDS011;10778;48.962;9.018;2024-01-15T08:51:41;13.85;;;7.18;;
21239;SDS011;10778;48.962;9.018;2024-01-15T08:54:07;14.95;;;7.15;;
21239;SDS011;10778;48.962;9.018;2024-01-15T08:56:34;15.77;;;7.63;;
21239;SDS011;10778;48.962;9.018;2024-01-15T08:59:00;14.18;;;7.50;;
21239;SDS011;10778;48.962;9.018;2024-01-15T09:01:26;13.70;;;7.25;;
21239;SDS011;10778;48.962;9.018;2024-01-15T09:03:52;16.20;;;7.28;;
21239;SDS011;10778;48.962;9.018;2024-01-15T09:06:18;15.90;;;7.57;;
21239;SDS011;10778;48.962;9.018;2024-01-15T09:08:44;15.82;;;7.68;;
21239;SDS011;10778;48.962;9.018;2024-01-15T09:11:10;14.55;;;7.00;;
21239;SDS011;10778;48.962;9.018;2024-01-15T09:13:36;15.85;;;7.15;;
21239;SDS011;10778;48.962;9.018;2024-01-15T09:16:02;15.60;;;7.20;;
21239;SDS011;10778;48.962;9.018;2024-01-15T09:18:29;15.15;;;7.93;;
21239;SDS011;10778;48.962;9.018;2024-01-15T09:20:55;15.25;;;7.22;;
21239;SDS011;10778;48.962;9.018;2024-01-15T09:23:21;17.85;;;8.52;;
21239;SDS011;10778;48.962;9.018;2024-01-15T09:25:47;17.00;;;8.63;;
21239;SDS011;10778;48.962;9.018;2024-01-15T09:28:14;16.63;;;8.25;;
21239;SDS011;10778;48.962;9.018;2024-01-15T09:30:40;16.85;;;8.43;;
21239;SDS011;10778;48.962;9.018;2024-01-15T09:33:06;16.13;;;8.63;;
21239;SDS011;10778;48.962;9.018;2024-01-15T09:35:32;21.30;;;10.63;;
21239;SDS011;10778;48.962;9.018;2024-01-15T09:37:58;13.93;;;7.32;;
21239;SDS011;10778;48.962;9.018;2024-01-15T09:40:24;15.10;;;7.13;;
21239;SDS011;10778;48.962;9.018;2024-01-15T09:42:54;12.88;;;7.15;;
21239;SDS011;10778;48.962;9.018;2024-01-15T09:45:20;12.02;;;6.53;;
21239;SDS011;10778;48.962;9.018;2024-01-15T09:47:47;13.13;;;6.72;;
21239;SDS011;10778;48.962;9.018;2024-01-15T09:50:13;13.48;;;7.05;;
21239;SDS011;10778;48.962;9.018;2024-01-15T09:52:43;12.93;;;6.72;;
21239;SDS011;10778;48.962;9.018;2024-01-15T09:55:10;13.75;;;6.18;;
21239;SDS011;10778;48.962;9.018;2024-01-15T09:57:37;13.07;;;5.88;;
21239;SDS011;10778;48.962;9.018;2024-01-15T10:00:05;13.27;;;6.35;;
21239;SDS011;10778;48.962;9.018;2024-01-15T10:02:33;12.75;;;6.10;;
21239;SDS011;10778;48.962;9.018;2024-01-15T10:05:00;14.48;;;6.43;;
21239;SDS011;10778;48.962;9.018;2024-01-15T10:07:26;12.75;;;6.68;;
21239;SDS011;10778;48.962;9.018;2024-01-15T10:09:55;13.50;;;6.63;;
21239;SDS011;10778;48.962;9.018;2024-01-15T10:12:21;13.40;;;6.60;;
21239;SDS011;10778;48.962;9.018;2024-01-15T10:14:48;13.93;;;6.70;;
21239;SDS011;10778;48.962;9.018;2024-01-15T10:17:16;11.32;;;5.90;;
21239;SDS011;10778;48.962;9.018;2024-01-15T10:19:42;12.07;;;6.05;;
21239;SDS011;10778;48.962;9.018;2024-01-15T10:22:09;13.38;;;6.07;;
21239;SDS011;10778;48.962;9.018;2024-01-15T10:24:38;13.18;;;5.72;;
21239;SDS011;10778;48.962;9.018;2024-01-15T10:27:06;13.63;;;6.90;;
21239;SDS011;10778;48.962;9.018;2024-01-15T10:29:33;11.50;;;5.88;;
21239;SDS011;10778;48.962;9.018;2024-01-15T10:31:59;11.35;;;5.47;;
21239;SDS011;10778;48.962;9.018;2024-01-15T10:34:26;8.45;;;4.80;;
21239;SDS011;10778;48.962;9.018;2024-01-15T10:36:52;12.75;;;5.95;;
21239;SDS011;10778;48.962;9.018;2024-01-15T10:39:21;9.30;;;5.32;;
21239;SDS011;10778;48.962;9.018;2024-01-15T10:41:48;11.90;;;5.80;;
21239;SDS011;10778;48.962;9.018;2024-01-15T10:44:15;12.57;;;6.03;;
21239;SDS011;10778;48.962;9.018;2024-01-15T10:46:41;13.52;;;6.38;;
21239;SDS011;10778;48.962;9.018;2024-01-15T10:49:07;13.43;;;6.75;;
21239;SDS011;10778;48.962;9.018;2024-01-15T10:51:33;13.13;;;7.10;;
21239;SDS011;10778;48.962;9.018;2024-01-15T10:53:59;16.83;;;8.27;;
21239;SDS011;10778;48.962;9.018;2024-01-15T10:56:27;16.33;;;9.40;;
21239;SDS011;10778;48.962;9.018;2024-01-15T10:58:54;14.45;;;8.15;;
21239;SDS011;10778;48.962;9.018;2024-01-15T11:01:20;16.88;;;8.80;;
21239;SDS011;10778;48.962;9.018;2024-01-15T11:03:46;18.45;;;9.93;;
21239;SDS011;10778;48.962;9.018;2024-01-15T11:06:16;16.20;;;8.65;;
21239;SDS011;10778;48.962;9.018;2024-01-15T11:08:47;16.25;;;10.18;;
21239;SDS011;10778;48.962;9.018;2024-01-15T11:11:16;17.42;;;9.32;;
21239;SDS011;10778;48.962;9.018;2024-01-15T11:13:43;16.65;;;9.18;;
21239;SDS011;10778;48.962;9.018;2024-01-15T11:16:10;17.40;;;9.90;;
21239;SDS011;10778;48.962;9.018;2024-01-15T11:18:41;23.45;;;12.20;;
21239;SDS011;10778;48.962;9.018;2024-01-15T11:23:44;20.85;;;12.52;;
21239;SDS011;10778;48.962;9.018;2024-01-15T11:28:59;17.15;;;12.23;;
21239;SDS011;10778;48.962;9.018;2024-01-15T11:34:05;17.65;;;9.27;;
21239;SDS011;10778;48.962;9.018;2024-01-15T11:41:56;17.13;;;10.40;;
21239;SDS011;10778;48.962;9.018;2024-01-15T11:44:23;19.27;;;9.93;;
21239;SDS011;10778;48.962;9.018;2024-01-15T11:46:55;17.27;;;10.18;;
21239;SDS011;10778;48.962;9.018;2024-01-15T11:49:34;19.33;;;10.05;;
21239;SDS011;10778;48.962;9.018;2024-01-15T11:52:05;18.45;;;10.00;;
21239;SDS011;10778;48.962;9.018;2024-01-15T11:54:36;16.83;;;8.48;;
21239;SDS011;10778;48.962;9.018;2024-01-15T11:57:04;14.45;;;8.20;;
21239;SDS011;10778;48.962;9.018;2024-01-15T11:59:44;15.80;;;8.32;;
21239;SDS011;10778;48.962;9.018;2024-01-15T12:02:10;14.93;;;8.77;;
21239;SDS011;10778;48.962;9.018;2024-01-15T12:04:38;17.55;;;8.73;;
21239;SDS011;10778;48.962;9.018;2024-01-15T12:07:05;18.55;;;8.25;;
21239;SDS011;10778;48.962;9.018;2024-01-15T12:09:31;14.82;;;8.15;;
21239;SDS011;10778;48.962;9.018;2024-01-15T12:12:00;13.38;;;7.78;;
21239;SDS011;10778;48.962;9.018;2024-01-15T12:14:33;16.33;;;7.10;;
21239;SDS011;10778;48.962;9.018;2024-01-15T12:17:00;13.68;;;7.65;;
21239;SDS011;10778;48.962;9.018;2024-01-15T12:19:26;13.38;;;7.57;;
21239;SDS011;10778;48.962;9.018;2024-01-15T12:21:52;12.85;;;6.55;;
21239;SDS011;10778;48.962;9.018;2024-01-15T12:24:18;12.77;;;6.72;;
21239;SDS011;10778;48.962;9.018;2024-01-15T12:26:44;12.25;;;6.45;;
21239;SDS011;10778;48.962;9.018;2024-01-15T12:29:10;9.88;;;5.93;;
21239;SDS011;10778;48.962;9.018;2024-01-15T12:31:37;23.85;;;13.32;;
21239;SDS011;10778;48.962;9.018;2024-01-15T12:34:02;14.45;;;8.35;;
21239;SDS011;10778;48.962;9.018;2024-01-15T12:36:32;11.10;;;6.32;;
21239;SDS011;10778;48.962;9.018;2024-01-15T12:39:01;11.18;;;6.60;;
21239;SDS011;10778;48.962;9.018;2024-01-15T12:41:27;12.57;;;6.45;;
21239;SDS011;10778;48.962;9.018;2024-01-15T12:43:53;12.60;;;7.03;;
21239;SDS011;10778;48.962;9.018;2024-01-15T12:46:19;10.45;;;6.60;;
21239;SDS011;10778;48.962;9.018;2024-01-15T12:48:45;12.52;;;6.50;;
21239;SDS011;10778;48.962;9.018;2024-01-15T12:51:11;13.05;;;7.20;;
21239;SDS011;10778;48.962;9.018;2024-01-15T12:53:37;11.40;;;6.65;;
21239;SDS011;10778;48.962;9.018;2024-01-15T12:56:03;14.63;;;7.85;;
21239;SDS011;10778;48.962;9.018;2024-01-15T12:58:29;13.40;;;7.57;;
21239;SDS011;10778;48.962;9.018;2024-01-15T13:00:55;10.57;;;6.55;;
21239;SDS011;10778;48.962;9.018;2024-01-15T13:03:22;12.18;;;6.90;;
21239;SDS011;10778;48.962;9.018;2024-01-15T13:05:48;16.25;;;7.82;;
21239;SDS011;10778;48.962;9.018;2024-01-15T13:08:14;15.07;;;7.45;;
21239;SDS011;10778;48.962;9.018;2024-01-15T13:10:40;16.40;;;8.50;;
21239;SDS011;10778;48.962;9.018;2024-01-15T13:13:07;14.65;;;8.02;;
21239;SDS011;10778;48.962;9.018;2024-01-15T13:15:33;14.85;;;8.05;;
21239;SDS011;10778;48.962;9.018;2024-01-15T13:18:00;14.38;;;7.93;;
21239;SDS011;10778;48.962;9.018;2024-01-15T13:20:26;15.07;;;8.82;;
21239;SDS011;10778;48.962;9.018;2024-01-15T13:22:52;17.08;;;8.73;;
21239;SDS011;10778;48.962;9.018;2024-01-15T13:25:18;14.10;;;7.88;;
21239;SDS011;10778;48.962;9.018;2024-01-15T13:27:44;17.58;;;8.93;;
21239;SDS011;10778;48.962;9.018;2024-01-15T13:30:10;14.95;;;7.95;;
21239;SDS011;10778;48.962;9.018;2024-01-15T13:32:37;18.90;;;9.00;;
21239;SDS011;10778;48.962;9.018;2024-01-15T13:35:04;12.77;;;7.70;;
21239;SDS011;10778;48.962;9.018;2024-01-15T13:37:32;14.93;;;8.43;;
21239;SDS011;10778;48.962;9.018;2024-01-15T13:39:58;15.18;;;8.32;;
21239;SDS011;10778;48.962;9.018;2024-01-15T13:42:24;14.35;;;8.10;;
21239;SDS011;10778;48.962;9.018;2024-01-15T13:44:52;13.07;;;7.70;;
21239;SDS011;10778;48.962;9.018;2024-01-15T13:47:18;14.13;;;7.78;;
21239;SDS011;10778;48.962;9.018;2024-01-15T13:49:44;12.35;;;7.70;;
21239;SDS011;10778;48.962;9.018;2024-01-15T13:52:10;13.88;;;7.38;;
21239;SDS011;10778;48.962;9.018;2024-01-15T13:54:36;14.75;;;8.32;;
21239;SDS011;10778;48.962;9.018;2024-01-15T13:57:02;15.25;;;7.47;;
21239;SDS011;10778;48.962;9.018;2024-01-15T13:59:28;14.20;;;7.80;;
21239;SDS011;10778;48.962;9.018;2024-01-15T14:01:57;14.23;;;8.23;;
21239;SDS011;10778;48.962;9.018;2024-01-15T14:04:23;14.15;;;7.88;;
21239;SDS011;10778;48.962;9.018;2024-01-15T14:06:49;15.40;;;8.23;;
21239;SDS011;10778;48.962;9.018;2024-01-15T14:09:15;13.82;;;7.90;;
21239;SDS011;10778;48.962;9.018;2024-01-15T14:11:41;15.23;;;8.50;;
21239;SDS011;10778;48.962;9.018;2024-01-15T14:14:07;16.63;;;8.35;;
21239;SDS011;10778;48.962;9.018;2024-01-15T14:16:34;13.70;;;7.85;;
21239;SDS011;10778;48.962;9.018;2024-01-15T14:19:00;14.15;;;8.15;;
21239;SDS011;10778;48.962;9.018;2024-01-15T14:21:28;16.38;;;8.07;;
21239;SDS011;10778;48.962;9.018;2024-01-15T14:23:54;15.02;;;8.27;;
21239;SDS011;10778;48.962;9.018;2024-01-15T14:26:20;15.35;;;8.32;;
21239;SDS011;10778;48.962;9.018;2024-01-15T14:28:46;15.57;;;9.20;;
21239;SDS011;10778;48.962;9.018;2024-01-15T14:31:12;46.88;;;20.48;;
21239;SDS011;10778;48.962;9.018;2024-01-15T14:33:39;109.90;;;41.25;;
21239;SDS011;10778;48.962;9.018;2024-01-15T14:36:05;19.25;;;10.40;;
21239;SDS011;10778;48.962;9.018;2024-01-15T14:38:31;15.60;;;8.75;;